Piedmont, California
Current Conditions -  °F | °C
As of 5:53 AM on Monday 20 Oct 2014 (Local Time) from KOAK Reporting Station
Broken Clouds Broken Clouds  
Wind Chill: 17°   Ceiling: 2400
Heat Index: 17°   Visibility: 10mi
Dew Point: 13°   Wind: 7mph
Humidity: 78%   Direction: 160°SSE
Pressure: 29.91"   Gusts: NA
Location:  37.82°N, 122.23°W
Report Text: KOAK 201253Z 16006KT 10SM BKN024 17/13 A2991 RMK AO2 SLP129 T01720133
Loading
Personal Weather Stations






























Interactive Weather Map
Tropical Storm Tracking
New forecast layout! Learn more

10-Day Weather Forecast

Advertisements
Track Severe Weather on mobile